createdAt,value
2023-04-29T00:01:07.172Z,95267.31
2023-04-29T00:03:35.306Z,95252.16
2023-04-29T00:06:03.327Z,95243.53
2023-04-29T00:08:31.407Z,95228.56
2023-04-29T00:10:59.193Z,95208.25
2023-04-29T00:13:28.327Z,95190.53
2023-04-29T00:15:56.126Z,95201.59
2023-04-29T00:18:23.906Z,95204.03
2023-04-29T00:20:51.732Z,95215.22
2023-04-29T00:23:19.980Z,95215.88
2023-04-29T00:25:47.885Z,95228.56
2023-04-29T00:28:16.331Z,95246.31
2023-04-29T00:30:46.145Z,95252.31
2023-04-29T00:33:13.989Z,95239.47
2023-04-29T00:35:41.733Z,95225.97
2023-04-29T00:38:09.524Z,95198.97
2023-04-29T00:40:37.565Z,95196.06
2023-04-29T00:43:05.381Z,95161.91
2023-04-29T00:45:33.178Z,95151.16
2023-04-29T00:48:02.499Z,95136.19
2023-04-29T00:50:30.875Z,95114.09
2023-04-29T00:52:59.053Z,95104.03
2023-04-29T00:55:27.537Z,95083.88
2023-04-29T00:57:55.354Z,95088.25
2023-04-29T01:00:24.532Z,95069.56
2023-04-29T01:02:52.490Z,95089.72
2023-04-29T01:05:21.852Z,95086.31
2023-04-29T01:08:06.355Z,95084.38
2023-04-29T01:10:40.688Z,95093.94
2023-04-29T01:13:14.230Z,95097.34
2023-04-29T01:15:48.433Z,95093.63
2023-04-29T01:18:21.562Z,95097.19
2023-04-29T01:20:51.373Z,95096.53
2023-04-29T01:23:19.240Z,95089.88
2023-04-29T01:25:49.160Z,95067.28
2023-04-29T01:28:28.399Z,95059.31
2023-04-29T01:31:02.091Z,95050.88
2023-04-29T01:33:36.133Z,95035.75
2023-04-29T01:36:13.998Z,95014.66
2023-04-29T01:38:48.516Z,95011.41
2023-04-29T01:41:21.264Z,94996.63
2023-04-29T01:43:51.504Z,94992.72
2023-04-29T01:46:20.361Z,94993.84
2023-04-29T01:48:48.150Z,94981.19
2023-04-29T01:51:16.015Z,94982.81
2023-04-29T01:53:44.412Z,94983.63
2023-04-29T01:56:12.231Z,94963.97
2023-04-29T01:58:41.791Z,94966.91
2023-04-29T02:01:10.535Z,94959.13
2023-04-29T02:03:39.144Z,94958.31
2023-04-29T02:06:08.039Z,94959.13
2023-04-29T02:08:35.935Z,94949.69
2023-04-29T02:11:03.761Z,94939.59
2023-04-29T02:13:31.987Z,94948.53
2023-04-29T02:16:09.093Z,94937.16
2023-04-29T02:18:36.863Z,94932.47
2023-04-29T02:21:05.351Z,94930.50
2023-04-29T02:23:33.139Z,94922.06
2023-04-29T02:26:01.696Z,94912.81
2023-04-29T02:28:29.554Z,94872.06
2023-04-29T02:30:57.487Z,94905.19
2023-04-29T02:33:26.818Z,94905.34
2023-04-29T02:35:54.563Z,94899.69
2023-04-29T02:38:22.374Z,94887.19
2023-04-29T02:40:50.495Z,94890.91
2023-04-29T02:43:18.273Z,94893.50
2023-04-29T02:45:46.345Z,94882.16
2023-04-29T02:48:14.351Z,94901.94
2023-04-29T02:50:43.525Z,94902.75
2023-04-29T02:53:11.397Z,94911.19
2023-04-29T02:55:39.386Z,94920.44
2023-04-29T02:58:07.184Z,94928.88
2023-04-29T03:00:35.050Z,94927.91
2023-04-29T03:03:02.965Z,94939.94
2023-04-29T03:05:30.848Z,94946.59
2023-04-29T03:08:00.160Z,94949.00
2023-04-29T03:10:28.083Z,94956.69
2023-04-29T03:12:55.917Z,94969.19
2023-04-29T03:15:23.826Z,94983.63
2023-04-29T03:17:51.669Z,95006.53
2023-04-29T03:20:20.423Z,95017.25
2023-04-29T03:22:48.154Z,95046.81
2023-04-29T03:25:17.374Z,95059.16
2023-04-29T03:27:45.265Z,95100.78
2023-04-29T03:30:13.396Z,95125.78
2023-04-29T03:32:41.558Z,95164.81
2023-04-29T03:35:14.152Z,95195.88
2023-04-29T03:37:44.782Z,95228.91
2023-04-29T03:40:14.249Z,95260.78
2023-04-29T03:42:43.496Z,95296.25
2023-04-29T03:45:13.180Z,95332.72
2023-04-29T03:47:41.048Z,95362.97
2023-04-29T03:50:09.495Z,95394.09
2023-04-29T03:52:37.521Z,95428.13
2023-04-29T03:55:05.800Z,95449.63
2023-04-29T03:57:33.614Z,95482.19
2023-04-29T04:00:03.479Z,95493.91
2023-04-29T04:02:31.513Z,95520.97
2023-04-29T04:04:59.467Z,95552.25
2023-04-29T04:07:27.334Z,95571.13
2023-04-29T04:09:55.368Z,95634.13
2023-04-29T04:12:23.382Z,95686.78
2023-04-29T04:14:51.377Z,95725.78
2023-04-29T04:17:20.725Z,95764.63
2023-04-29T04:19:48.545Z,95808.66
2023-04-29T04:22:17.186Z,95862.91
2023-04-29T04:24:51.065Z,95925.59
2023-04-29T04:27:19.151Z,95980.50
2023-04-29T04:29:46.955Z,96044.94
2023-04-29T04:32:14.707Z,96113.59
2023-04-29T04:34:43.843Z,96213.56
2023-04-29T04:37:12.041Z,96352.88
2023-04-29T04:39:40.008Z,96494.13
2023-04-29T04:42:07.801Z,96641.22
2023-04-29T04:44:35.619Z,96811.50
2023-04-29T04:47:03.568Z,96954.75
2023-04-29T04:49:31.531Z,97076.75
2023-04-29T04:52:00.711Z,97127.03
2023-04-29T04:54:28.498Z,97259.47
2023-04-29T04:56:56.282Z,97326.00
2023-04-29T04:59:24.007Z,97387.63
2023-04-29T05:01:51.780Z,97471.66
2023-04-29T05:04:19.663Z,97503.34
2023-04-29T05:06:47.788Z,97559.06
2023-04-29T05:09:16.965Z,97575.91
2023-04-29T05:11:44.879Z,97635.28
2023-04-29T05:14:12.723Z,97701.28
2023-04-29T05:16:40.888Z,97757.50
2023-04-29T05:19:09.710Z,97848.66
2023-04-29T05:21:37.461Z,97904.34
2023-04-29T05:24:06.172Z,97974.91
2023-04-29T05:26:35.477Z,98072.69
2023-04-29T05:29:03.342Z,98152.59
2023-04-29T05:31:31.375Z,98222.88
2023-04-29T05:33:59.243Z,98326.22
2023-04-29T05:36:28.625Z,98391.50
2023-04-29T05:38:56.684Z,98426.69
2023-04-29T05:41:25.036Z,98494.97
2023-04-29T05:43:54.178Z,98524.91
2023-04-29T05:46:23.262Z,98525.88
2023-04-29T05:48:51.248Z,98568.97
2023-04-29T05:51:19.143Z,98613.06
2023-04-29T05:53:46.902Z,98636.34
2023-04-29T05:56:14.646Z,98715.66
2023-04-29T05:58:42.393Z,98775.88
2023-04-29T06:01:14.073Z,98828.63
2023-04-29T06:03:42.838Z,98910.47
2023-04-29T06:06:11.421Z,98931.34
2023-04-29T06:08:39.435Z,98975.28
2023-04-29T06:11:07.321Z,98995.47
2023-04-29T06:13:35.078Z,99038.72
2023-04-29T06:16:02.992Z,99020.59
2023-04-29T06:18:32.223Z,99026.47
2023-04-29T06:20:59.962Z,99050.72
2023-04-29T06:23:27.764Z,99020.59
2023-04-29T06:25:55.726Z,99022.84
2023-04-29T06:28:23.527Z,99078.34
2023-04-29T06:30:51.316Z,99172.56
2023-04-29T06:33:19.061Z,99300.63
2023-04-29T06:35:48.180Z,99435.53
2023-04-29T06:38:15.982Z,99627.91
2023-04-29T06:40:43.761Z,99761.47
2023-04-29T06:43:11.499Z,99949.84
2023-04-29T06:45:39.198Z,100048.88
2023-04-29T06:48:07.448Z,100137.53
2023-04-29T06:50:36.321Z,100292.38
2023-04-29T06:53:05.560Z,100424.88
2023-04-29T06:55:33.422Z,100571.03
2023-04-29T06:58:01.120Z,100565.94
2023-04-29T07:00:28.862Z,100553.81
2023-04-29T07:02:56.875Z,100548.75
2023-04-29T07:05:25.239Z,100742.16
2023-04-29T07:07:53.017Z,100813.72
2023-04-29T07:10:22.199Z,100690.88
2023-04-29T07:12:49.997Z,100757.81
2023-04-29T07:15:17.881Z,100874.91
2023-04-29T07:17:45.759Z,101060.94
2023-04-29T07:20:14.646Z,101250.00
2023-04-29T07:22:42.371Z,101317.31
2023-04-29T07:25:11.002Z,101187.78
2023-04-29T07:27:40.248Z,101259.53
2023-04-29T07:30:09.158Z,101385.56
2023-04-29T07:32:37.230Z,101398.81
2023-04-29T07:35:05.611Z,101578.44
2023-04-29T07:37:33.471Z,101535.69
2023-04-29T07:40:01.451Z,101413.78
2023-04-29T07:42:30.195Z,101386.53
2023-04-29T07:44:59.532Z,101261.47
2023-04-29T07:47:27.463Z,101246.50
2023-04-29T07:49:55.262Z,101305.13
2023-04-29T07:52:23.059Z,101409.28
2023-04-29T07:54:51.312Z,101528.50
2023-04-29T07:57:19.738Z,101620.63
2023-04-29T07:59:47.452Z,101608.28
2023-04-29T08:02:16.810Z,101698.81
2023-04-29T08:04:45.396Z,101679.44
2023-04-29T08:07:13.697Z,101645.22
2023-04-29T08:09:41.664Z,101791.53
2023-04-29T08:12:09.745Z,101865.44
2023-04-29T08:14:37.585Z,102016.56
2023-04-29T08:17:05.662Z,102046.50
2023-04-29T08:19:35.053Z,101748.72
2023-04-29T08:22:04.194Z,101531.19
2023-04-29T08:24:33.772Z,101286.03
2023-04-29T08:27:01.796Z,101197.09
2023-04-29T08:29:32.723Z,101159.09
2023-04-29T08:32:00.842Z,100999.06
2023-04-29T08:34:28.630Z,100933.63
2023-04-29T08:36:58.405Z,100778.06
2023-04-29T08:39:26.495Z,100765.78
2023-04-29T08:41:56.487Z,100828.66
2023-04-29T08:44:24.564Z,101070.53
2023-04-29T08:46:53.527Z,101174.44
2023-04-29T08:49:21.466Z,101185.88
2023-04-29T08:51:51.582Z,101238.38
2023-04-29T08:54:20.803Z,101383.66
2023-04-29T08:56:49.766Z,101656.34
2023-04-29T08:59:18.800Z,101841.38
2023-04-29T09:01:50.791Z,101685.22
2023-04-29T09:04:31.160Z,101708.97
2023-04-29T09:06:59.471Z,101598.44
2023-04-29T09:09:29.291Z,101618.59
2023-04-29T09:11:57.163Z,101539.53
2023-04-29T09:14:25.460Z,101358.31
2023-04-29T09:16:53.662Z,101187.56
2023-04-29T09:19:32.021Z,101086.09
2023-04-29T09:22:00.832Z,100950.69
2023-04-29T09:24:31.769Z,100912.44
2023-04-29T09:27:00.518Z,100861.47
2023-04-29T09:29:28.411Z,100835.22
2023-04-29T09:31:58.826Z,100686.91
2023-04-29T09:34:35.690Z,100665.09
2023-04-29T09:37:03.823Z,100759.22
2023-04-29T09:39:40.876Z,101035.22
2023-04-29T09:42:09.742Z,101164.53
2023-04-29T09:44:37.610Z,101160.88
2023-04-29T09:47:07.384Z,101165.47
2023-04-29T09:49:37.539Z,101131.22
2023-04-29T09:52:06.715Z,100978.69
2023-04-29T09:54:37.283Z,100756.53
2023-04-29T09:57:06.999Z,100651.03
2023-04-29T09:59:36.187Z,100625.72
2023-04-29T10:02:09.723Z,100607.41
2023-04-29T10:04:41.585Z,100612.50
2023-04-29T10:07:10.025Z,100644.75
2023-04-29T10:09:41.623Z,100758.97
2023-04-29T10:12:09.599Z,100868.06
2023-04-29T10:14:44.521Z,100968.47
2023-04-29T10:17:18.015Z,101103.91
2023-04-29T10:19:53.563Z,101220.25
2023-04-29T10:22:30.502Z,101152.13
2023-04-29T10:25:02.220Z,100982.44
2023-04-29T10:27:33.316Z,100886.41
2023-04-29T10:30:04.998Z,100725.75
2023-04-29T10:32:49.822Z,100702.94
2023-04-29T10:35:22.744Z,100666.69
2023-04-29T10:37:51.462Z,100605.47
2023-04-29T10:40:26.126Z,100604.41
2023-04-29T10:42:54.918Z,100591.41
2023-04-29T10:45:25.102Z,100599.19
2023-04-29T10:48:16.370Z,100553.13
2023-04-29T10:51:03.724Z,100483.38
2023-04-29T10:53:32.312Z,100505.91
2023-04-29T10:56:08.768Z,100478.81
2023-04-29T10:58:45.139Z,100481.47
2023-04-29T11:01:14.572Z,100438.72
2023-04-29T11:03:59.405Z,100428.28
2023-04-29T11:06:40.063Z,100530.25
2023-04-29T11:09:11.061Z,100592.91
2023-04-29T11:11:48.977Z,100653.97
2023-04-29T11:14:22.412Z,100539.09
2023-04-29T11:16:53.718Z,100403.84
2023-04-29T11:19:21.915Z,100338.59
2023-04-29T11:21:49.737Z,100308.84
2023-04-29T11:24:17.562Z,100299.28
2023-04-29T11:26:47.102Z,100245.47
2023-04-29T11:29:21.129Z,100274.88
2023-04-29T11:31:48.982Z,100335.72
2023-04-29T11:34:16.832Z,100305.22
2023-04-29T11:36:47.009Z,100275.72
2023-04-29T11:39:18.090Z,100273.16
2023-04-29T11:41:47.453Z,100235.81
2023-04-29T11:44:15.239Z,100221.75
2023-04-29T11:46:43.170Z,100167.00
2023-04-29T11:49:11.135Z,100115.63
2023-04-29T11:51:39.099Z,100133.78
2023-04-29T11:54:08.321Z,100061.69
2023-04-29T11:56:38.663Z,100044.19
2023-04-29T11:59:08.557Z,99946.22
2023-04-29T12:01:37.076Z,99939.97
2023-04-29T12:04:07.384Z,99933.81
2023-04-29T12:06:35.388Z,99957.34
2023-04-29T12:09:04.557Z,99969.41
2023-04-29T12:11:32.337Z,99992.88
2023-04-29T12:14:02.600Z,99991.91
2023-04-29T12:16:32.289Z,99992.88
2023-04-29T12:19:00.823Z,99943.34
2023-04-29T12:21:28.761Z,99932.97
2023-04-29T12:24:01.100Z,99927.66
2023-04-29T12:26:29.600Z,99818.41
2023-04-29T12:28:58.890Z,99770.53
2023-04-29T12:31:36.493Z,99759.19
2023-04-29T12:34:07.470Z,99765.47
2023-04-29T12:36:37.362Z,99876.22
2023-04-29T12:39:08.372Z,100030.06
2023-04-29T12:41:40.623Z,100104.88
2023-04-29T12:44:10.841Z,100149.13
2023-04-29T12:46:41.536Z,100208.97
2023-04-29T12:49:09.461Z,100292.41
2023-04-29T12:51:37.716Z,100278.63
2023-04-29T12:54:07.130Z,100177.53
2023-04-29T12:56:35.191Z,100089.03
2023-04-29T12:59:07.883Z,100121.22
2023-04-29T13:01:35.825Z,100104.75
2023-04-29T13:04:06.652Z,100019.44
2023-04-29T13:06:34.740Z,99904.13
2023-04-29T13:09:02.850Z,99863.09
2023-04-29T13:11:34.329Z,99825.06
2023-04-29T13:14:02.658Z,99729.28
2023-04-29T13:16:30.494Z,99762.34
2023-04-29T13:19:08.163Z,99757.03
2023-04-29T13:21:42.214Z,99744.97
2023-04-29T13:24:10.491Z,99697.31
2023-04-29T13:26:39.430Z,99599.31
2023-04-29T13:29:07.176Z,99551.72
2023-04-29T13:31:35.261Z,99519.56
2023-04-29T13:34:03.556Z,99484.91
2023-04-29T13:36:31.345Z,99491.88
2023-04-29T13:39:00.573Z,99478.84
2023-04-29T13:41:28.613Z,99445.97
2023-04-29T13:43:58.529Z,99438.16
2023-04-29T13:46:27.381Z,99529.94
2023-04-29T13:49:25.337Z,99590.41
2023-04-29T13:52:03.885Z,99665.97
2023-04-29T13:57:55.437Z,99666.56
2023-04-29T13:59:53.316Z,99664.03
2023-04-29T14:02:25.609Z,99709.16
2023-04-29T14:04:54.740Z,99729.03
2023-04-29T14:07:23.504Z,99706.84
2023-04-29T14:09:52.937Z,99688.25
2023-04-29T14:12:20.844Z,99653.69
2023-04-29T14:14:48.918Z,99664.88
2023-04-29T14:17:16.703Z,99654.28
2023-04-29T14:19:44.599Z,99633.53
2023-04-29T14:22:12.375Z,99630.19
2023-04-29T14:24:40.427Z,99650.06
2023-04-29T14:27:09.551Z,99651.63
2023-04-29T14:29:37.493Z,99682.00
2023-04-29T14:32:07.372Z,99706.84
2023-04-29T14:34:36.182Z,99759.19
2023-04-29T14:37:03.961Z,99898.91
2023-04-29T14:39:31.805Z,100119.41
2023-04-29T14:42:00.484Z,100176.84
2023-04-29T14:44:30.672Z,100245.38
2023-04-29T14:46:58.437Z,100212.63
2023-04-29T14:49:26.377Z,100213.22
2023-04-29T14:51:54.174Z,100584.28
2023-04-29T14:54:21.981Z,100920.81
2023-04-29T14:56:50.126Z,101027.47
2023-04-29T14:59:18.009Z,100742.91
2023-04-29T15:01:47.564Z,100547.69
2023-04-29T15:04:15.425Z,100377.75
2023-04-29T15:06:43.482Z,100288.13
2023-04-29T15:09:11.259Z,100235.00
2023-04-29T15:11:39.067Z,100132.44
2023-04-29T15:14:07.094Z,99982.97
2023-04-29T15:16:36.320Z,99859.09
2023-04-29T15:19:05.597Z,99785.97
2023-04-29T15:21:33.626Z,99722.66
2023-04-29T15:24:02.199Z,99671.38
2023-04-29T15:26:30.021Z,99659.22
2023-04-29T15:28:57.837Z,99625.34
2023-04-29T15:31:27.193Z,99614.25
2023-04-29T15:33:56.647Z,99558.81
2023-04-29T15:36:32.620Z,99551.81
2023-04-29T15:39:00.437Z,99514.47
2023-04-29T15:41:28.317Z,99498.13
2023-04-29T15:43:58.286Z,99450.44
2023-04-29T15:46:27.781Z,99418.38
2023-04-29T15:48:55.815Z,99420.06
2023-04-29T15:51:23.667Z,99401.06
2023-04-29T15:53:52.780Z,99293.94
2023-04-29T15:56:21.064Z,99055.16
2023-04-29T15:58:49.007Z,98854.88
2023-04-29T16:01:16.985Z,98690.47
2023-04-29T16:03:44.810Z,98572.44
2023-04-29T16:06:12.719Z,98445.72
2023-04-29T16:08:40.495Z,98350.19
2023-04-29T16:11:09.600Z,98301.13
2023-04-29T16:13:37.502Z,98307.22
2023-04-29T16:16:05.454Z,98334.91
2023-04-29T16:18:33.772Z,98345.88
2023-04-29T16:21:01.490Z,98330.59
2023-04-29T16:23:29.377Z,98286.53
2023-04-29T16:34:16.001Z,97977.31
2023-04-29T16:36:43.864Z,97931.81
2023-04-29T16:39:11.658Z,97915.63
2023-04-29T16:41:39.518Z,97869.19
2023-04-29T16:44:08.932Z,97851.16
2023-04-29T16:46:36.947Z,97858.91
2023-04-29T16:49:04.866Z,97843.41
2023-04-29T16:51:33.711Z,97858.81
2023-04-29T16:54:02.724Z,97860.56
2023-04-29T16:56:30.834Z,97870.84
2023-04-29T16:58:58.732Z,97908.53
2023-04-29T17:01:28.999Z,97940.41
2023-04-29T17:03:57.291Z,97936.00
2023-04-29T17:06:25.579Z,97906.19
2023-04-29T17:08:53.752Z,97863.09
2023-04-29T17:11:21.559Z,97836.59
2023-04-29T17:13:50.507Z,97828.03
2023-04-29T17:16:18.430Z,97777.63
2023-04-29T17:18:47.766Z,97731.88
2023-04-29T17:21:15.688Z,97702.00
2023-04-29T17:23:43.426Z,97677.22
2023-04-29T17:26:11.251Z,97649.81
2023-04-29T17:28:39.019Z,97665.03
2023-04-29T17:31:06.998Z,97678.88
2023-04-29T17:33:35.596Z,97651.34
2023-04-29T17:36:06.070Z,97578.00
2023-04-29T17:38:34.133Z,97535.28
2023-04-29T17:41:02.627Z,97500.41
2023-04-29T17:43:33.398Z,97458.09
2023-04-29T17:46:01.472Z,97421.44
2023-04-29T17:48:29.284Z,97398.38
2023-04-29T17:50:57.082Z,97376.00
2023-04-29T17:53:26.727Z,97408.75
2023-04-29T17:55:54.517Z,97403.34
2023-04-29T17:58:22.474Z,97387.88
2023-04-29T18:00:50.565Z,97374.34
2023-04-29T18:03:18.630Z,97362.47
2023-04-29T18:05:47.405Z,97338.44
2023-04-29T18:08:15.296Z,97321.59
2023-04-29T18:10:44.409Z,97292.13
2023-04-29T18:13:12.251Z,97271.84
2023-04-29T18:15:40.197Z,97274.31
2023-04-29T18:18:08.270Z,97247.00
2023-04-29T18:20:36.348Z,97237.50
2023-04-29T18:23:04.154Z,97242.84
2023-04-29T18:25:32.029Z,97241.88
2023-04-29T18:28:13.702Z,97239.25
2023-04-29T18:30:50.116Z,97260.50
2023-04-29T18:33:17.979Z,97285.38
2023-04-29T18:35:45.771Z,97276.94
2023-04-29T18:38:17.101Z,97245.34
2023-04-29T18:40:45.135Z,97237.59
2023-04-29T18:43:18.060Z,97218.84
2023-04-29T18:45:46.175Z,97206.97
2023-04-29T18:48:15.006Z,97217.31
2023-04-29T18:50:43.589Z,97180.75
2023-04-29T18:53:11.847Z,97182.94
2023-04-29T18:55:39.620Z,97177.13
2023-04-29T18:58:07.392Z,97185.56
2023-04-29T19:00:36.756Z,97185.56
2023-04-29T19:03:05.856Z,97209.44
2023-04-29T19:05:33.620Z,97231.00
2023-04-29T19:08:01.385Z,97220.63
2023-04-29T19:10:29.245Z,97187.50
2023-04-29T19:12:57.021Z,97211.41
2023-04-29T19:15:27.962Z,97224.91
2023-04-29T19:17:57.347Z,97215.53
2023-04-29T19:20:25.769Z,97195.91
2023-04-29T19:22:53.843Z,97176.31
2023-04-29T19:25:21.879Z,97203.53
2023-04-29T19:27:51.035Z,97180.59
2023-04-29T19:30:19.511Z,97162.81
2023-04-29T19:32:47.476Z,97208.88
2023-04-29T19:35:16.711Z,97253.06
2023-04-29T19:37:44.507Z,97267.72
2023-04-29T19:40:12.880Z,97272.13
2023-04-29T19:42:40.985Z,97295.59
2023-04-29T19:45:10.169Z,97339.53
2023-04-29T19:47:38.046Z,97358.19
2023-04-29T19:50:06.850Z,97344.66
2023-04-29T19:52:36.279Z,97329.88
2023-04-29T19:55:04.872Z,97343.81
2023-04-29T19:57:33.141Z,97353.22
2023-04-29T20:00:01.457Z,97348.94
2023-04-29T20:02:29.449Z,97347.13
2023-04-29T20:04:57.318Z,97342.03
2023-04-29T20:07:25.125Z,97307.75
2023-04-29T20:09:54.552Z,97284.81
2023-04-29T20:12:22.528Z,97264.41
2023-04-29T20:14:50.261Z,97239.56
2023-04-29T20:17:18.138Z,97232.94
2023-04-29T20:19:46.000Z,97223.41
2023-04-29T20:22:13.872Z,97209.84
2023-04-29T20:24:41.736Z,97210.69
2023-04-29T20:27:11.141Z,97204.75
2023-04-29T20:29:38.942Z,97171.34
2023-04-29T20:32:06.969Z,97186.81
2023-04-29T20:34:36.406Z,97179.22
2023-04-29T20:37:04.378Z,97166.41
2023-04-29T20:39:32.153Z,97136.31
2023-04-29T20:42:00.454Z,97124.47
2023-04-29T20:44:30.043Z,97094.63
2023-04-29T20:46:58.002Z,97103.19
2023-04-29T20:49:26.330Z,97103.19
2023-04-29T20:51:54.188Z,97075.34
2023-04-29T20:54:22.507Z,97081.97
2023-04-29T20:56:50.338Z,97054.66
2023-04-29T20:59:19.740Z,97066.50
2023-04-29T21:01:49.986Z,97088.84
2023-04-29T21:04:18.318Z,97108.44
2023-04-29T21:06:46.184Z,97084.72
2023-04-29T21:09:14.026Z,97086.38
2023-04-29T21:11:41.735Z,97090.50
2023-04-29T21:14:09.490Z,97077.84
2023-04-29T21:16:37.292Z,97080.31
2023-04-29T21:19:06.479Z,97096.59
2023-04-29T21:21:34.280Z,97090.66
2023-04-29T21:24:02.113Z,97072.88
2023-04-29T21:26:30.151Z,97087.34
2023-04-29T21:28:57.896Z,97083.06
2023-04-29T21:31:25.693Z,97094.94
2023-04-29T21:33:53.752Z,97075.22
2023-04-29T21:36:22.951Z,97057.44
2023-04-29T21:38:52.757Z,97062.69
2023-04-29T21:41:26.645Z,97074.53
2023-04-29T21:43:55.734Z,97065.28
2023-04-29T21:46:24.164Z,97033.72
2023-04-29T21:48:52.413Z,97091.63
2023-04-29T21:51:22.827Z,97098.53
2023-04-29T21:53:50.750Z,97161.59
2023-04-29T21:56:18.742Z,97189.19
2023-04-29T21:58:46.962Z,97235.84
2023-04-29T22:01:27.458Z,97249.50
2023-04-29T22:03:56.993Z,97271.72
2023-04-29T22:06:26.783Z,97282.91
2023-04-29T22:08:54.701Z,97304.31
2023-04-29T22:11:22.847Z,97335.25
2023-04-29T22:13:50.745Z,97345.34
2023-04-29T22:16:18.936Z,97346.19
2023-04-29T22:18:46.854Z,97372.16
2023-04-29T22:21:14.600Z,97373.53
2023-04-29T22:23:44.006Z,97382.09
2023-04-29T22:26:11.970Z,97402.84
2023-04-29T22:28:39.733Z,97431.16
2023-04-29T22:31:07.573Z,97428.53
2023-04-29T22:33:35.849Z,97446.50
2023-04-29T22:36:04.012Z,97432.66
2023-04-29T22:38:31.787Z,97442.06
2023-04-29T22:41:01.833Z,97478.03
2023-04-29T22:43:29.764Z,97471.38
2023-04-29T22:45:58.487Z,97439.34
2023-04-29T22:48:27.723Z,97516.88
2023-04-29T22:50:57.233Z,97504.03
2023-04-29T22:53:25.024Z,97509.00
2023-04-29T22:55:53.438Z,97511.63
2023-04-29T22:58:24.632Z,97507.19
2023-04-29T23:00:56.068Z,97505.69
2023-04-29T23:03:24.269Z,97491.31
2023-04-29T23:05:52.048Z,97493.78
2023-04-29T23:08:19.794Z,97516.88
2023-04-29T23:10:49.388Z,97529.75
2023-04-29T23:13:17.653Z,97544.25
2023-04-29T23:15:47.141Z,97539.97
2023-04-29T23:18:14.927Z,97503.47
2023-04-29T23:20:42.897Z,97551.03
2023-04-29T23:23:10.671Z,97532.38
2023-04-29T23:25:38.410Z,97543.28
2023-04-29T23:28:06.753Z,97529.16
2023-04-29T23:30:34.542Z,97552.13
2023-04-29T23:33:03.671Z,97550.47
2023-04-29T23:35:31.682Z,97558.38
2023-04-29T23:37:59.504Z,97557.41
2023-04-29T23:40:27.260Z,97560.72
2023-04-29T23:42:55.157Z,97540.25
2023-04-29T23:45:23.038Z,97575.22
2023-04-29T23:47:50.866Z,97550.47
2023-04-29T23:50:20.370Z,97564.31
2023-04-29T23:52:48.182Z,97568.47
2023-04-29T23:55:15.996Z,97560.72
2023-04-29T23:57:43.825Z,97574.69
